首页
METAR-TAF:

METAR-TAF

机场 :

格洛斯特, 英格兰

纬度: 51-54N, 经度: 002-10W, 海拔: 29米

当前天气观测

该预报发布于19分钟前的17:20 UTC
风速2节,风向西
温度 7°C
湿度 93%
气压 1021 hPa
能见度10公里或以上
少量云层高于800英尺
多云层高于900英尺
多云层高于2500英尺

METAR: EGBJ 241720Z 28002KT 9999 FEW008 BKN009 BKN025 07/06 Q1021

时间: 17:39 (17:39 UTC)

预报

该预报发布于3小时和40分钟前的13:59 UTC
预报有效从24日的 15点(UTC)到 24日的 20点(UTC)
风速3节,风向多变
能见度10公里或以上
少量云层高于1000英尺
多云层高于2000英尺
短暂存在
从 24日的 15点(UTC)到 24日的 20点(UTC)
能見度: 6000
多云层高于800英尺

TAF: EGBJ 241359Z 2415/2420 VRB03KT 9999 FEW010 BKN020 TEMPO 2415/2420 6000 BKN008

超过4000个机场的气象观测和天气预报(METAR&TAF报告)。

可查询的气象台以黄色和红色小点在地图上表示。

将鼠标移到小点上方,可查看气象台名称。

然后点击查看天气观测和预报。

如需切换地图:点击带黑十字的绿色按钮放大地图;点击带横线的绿色按钮缩小地图;或者点击绿色箭头查看邻近地区的地图。


METAR-TAF: